createdAt,value
2019-04-23T00:00:03.767Z,7.60
2019-04-23T00:01:08.054Z,8.30
2019-04-23T00:02:03.974Z,7.80
2019-04-23T00:02:58.851Z,7.80
2019-04-23T00:04:01.069Z,7.80
2019-04-23T00:04:59.539Z,8.10
2019-04-23T00:06:08.541Z,8.00
2019-04-23T00:07:13.014Z,7.90
2019-04-23T00:08:07.392Z,8.00
2019-04-23T00:09:07.671Z,7.80
2019-04-23T00:10:06.550Z,7.90
2019-04-23T00:11:08.800Z,8.10
2019-04-23T00:12:01.804Z,7.80
2019-04-23T00:12:59.144Z,7.70
2019-04-23T00:14:07.097Z,7.80
2019-04-23T00:15:24.040Z,7.80
2019-04-23T00:16:10.762Z,7.80
2019-04-23T00:17:11.606Z,8.60
2019-04-23T00:18:04.150Z,8.30
2019-04-23T00:18:56.157Z,8.20
2019-04-23T00:21:11.725Z,8.40
2019-04-23T00:21:57.343Z,8.30
2019-04-23T00:23:05.099Z,8.40
2019-04-23T00:24:10.055Z,8.40
2019-04-23T00:25:34.476Z,9.00
2019-04-23T00:26:00.284Z,8.20
2019-04-23T00:27:19.663Z,8.80
2019-04-23T00:28:07.875Z,8.30
2019-04-23T00:29:05.393Z,8.20
2019-04-23T00:30:18.856Z,8.30
2019-04-23T00:31:11.848Z,8.80
2019-04-23T00:32:05.094Z,8.70
2019-04-23T00:33:07.417Z,9.00
2019-04-23T00:34:04.881Z,7.90
2019-04-23T00:35:00.634Z,8.40
2019-04-23T00:36:02.711Z,8.50
2019-04-23T00:37:06.514Z,8.50
2019-04-23T00:38:09.107Z,8.50
2019-04-23T00:39:17.307Z,8.20
2019-04-23T00:39:57.721Z,8.10
2019-04-23T00:41:02.977Z,8.00
2019-04-23T00:42:10.311Z,8.60
2019-04-23T00:43:01.976Z,8.30
2019-04-23T00:44:04.196Z,8.40
2019-04-23T00:45:18.139Z,8.70
2019-04-23T00:45:59.797Z,8.20
2019-04-23T00:47:00.994Z,8.50
2019-04-23T00:48:02.998Z,8.90
2019-04-23T00:49:05.420Z,8.80
2019-04-23T00:50:15.989Z,8.60
2019-04-23T00:50:58.571Z,9.00
2019-04-23T00:52:12.608Z,8.70
2019-04-23T00:53:12.606Z,8.50
2019-04-23T00:54:09.477Z,8.40
2019-04-23T00:55:12.453Z,8.70
2019-04-23T00:56:22.093Z,8.80
2019-04-23T00:57:09.041Z,8.00
2019-04-23T00:58:07.655Z,8.80
2019-04-23T00:59:00.414Z,9.20
2019-04-23T01:00:10.351Z,8.50
2019-04-23T01:01:00.431Z,8.70
2019-04-23T01:02:05.702Z,8.40
2019-04-23T01:04:02.335Z,8.30
2019-04-23T01:05:10.302Z,8.90
2019-04-23T01:05:58.845Z,9.20
2019-04-23T01:08:06.827Z,8.80
2019-04-23T01:09:02.143Z,8.90
2019-04-23T01:10:10.616Z,8.90
2019-04-23T01:11:16.356Z,9.00
2019-04-23T01:12:03.896Z,8.90
2019-04-23T01:15:02.492Z,8.70
2019-04-23T01:16:21.247Z,9.50
2019-04-23T01:17:06.061Z,8.70
2019-04-23T01:18:14.247Z,8.60
2019-04-23T01:19:18.930Z,8.80
2019-04-23T01:20:04.825Z,9.20
2019-04-23T01:20:53.669Z,9.10
2019-04-23T01:21:41.173Z,8.80
2019-04-23T01:22:40.190Z,9.40
2019-04-23T01:23:47.155Z,9.00
2019-04-23T01:24:43.805Z,9.40
2019-04-23T01:25:51.347Z,9.00
2019-04-23T01:27:16.393Z,9.10
2019-04-23T01:28:02.135Z,9.40
2019-04-23T01:29:06.743Z,9.50
2019-04-23T01:30:12.433Z,9.10
2019-04-23T01:31:09.179Z,9.30
2019-04-23T01:32:08.638Z,9.40
2019-04-23T01:33:02.612Z,8.90
2019-04-23T01:34:11.117Z,8.70
2019-04-23T01:35:15.482Z,9.30
2019-04-23T01:36:16.192Z,9.20
2019-04-23T01:37:07.754Z,9.80
2019-04-23T01:38:09.644Z,9.10
2019-04-23T01:39:08.252Z,9.90
2019-04-23T01:39:57.911Z,9.60
2019-04-23T01:41:09.554Z,9.40
2019-04-23T01:42:11.829Z,9.70
2019-04-23T01:43:04.317Z,9.30
2019-04-23T01:43:58.219Z,9.60
2019-04-23T01:45:07.037Z,9.10
2019-04-23T01:46:07.941Z,9.10
2019-04-23T01:47:15.053Z,9.30
2019-04-23T01:48:00.109Z,9.70
2019-04-23T01:49:07.812Z,9.40
2019-04-23T01:50:21.326Z,9.90
2019-04-23T01:52:08.206Z,9.90
2019-04-23T01:53:08.588Z,9.80
2019-04-23T01:54:06.966Z,9.70
2019-04-23T01:55:08.244Z,9.60
2019-04-23T01:56:09.147Z,9.70
2019-04-23T01:57:13.631Z,10.10
2019-04-23T01:58:20.712Z,9.80
2019-04-23T01:59:05.085Z,9.70
2019-04-23T02:00:14.070Z,10.00
2019-04-23T02:01:08.554Z,9.80
2019-04-23T02:02:05.225Z,10.10
2019-04-23T02:04:16.504Z,10.00
2019-04-23T02:05:09.758Z,9.80
2019-04-23T02:06:06.703Z,9.90
2019-04-23T02:07:06.242Z,10.00
2019-04-23T02:09:10.952Z,9.80
2019-04-23T02:10:16.793Z,10.20
2019-04-23T02:11:02.977Z,9.80
2019-04-23T02:12:07.416Z,10.10
2019-04-23T02:13:14.151Z,9.60
2019-04-23T02:14:09.454Z,10.00
2019-04-23T02:15:11.524Z,9.80
2019-04-23T02:16:10.191Z,10.20
2019-04-23T02:17:00.193Z,9.50
2019-04-23T02:18:05.490Z,10.10
2019-04-23T02:19:12.948Z,10.20
2019-04-23T02:20:14.185Z,10.40
2019-04-23T02:22:08.839Z,10.30
2019-04-23T02:23:11.375Z,10.00
2019-04-23T02:24:03.645Z,10.60
2019-04-23T02:25:09.582Z,10.20
2019-04-23T02:26:04.794Z,10.50
2019-04-23T02:27:09.834Z,10.70
2019-04-23T02:28:10.003Z,10.20
2019-04-23T02:29:13.301Z,9.90
2019-04-23T02:31:29.695Z,10.40
2019-04-23T02:33:29.418Z,10.30
2019-04-23T02:37:13.428Z,10.50
2019-04-23T02:38:27.310Z,10.50
2019-04-23T02:39:02.769Z,10.50
2019-04-23T02:40:17.039Z,10.40
2019-04-23T02:41:27.659Z,10.40
2019-04-23T02:42:30.864Z,9.90
2019-04-23T02:43:15.233Z,9.80
2019-04-23T02:45:10.351Z,10.40
2019-04-23T02:46:08.171Z,10.00
2019-04-23T02:48:19.806Z,10.30
2019-04-23T02:50:34.669Z,10.30
2019-04-23T02:51:10.879Z,10.20
2019-04-23T02:53:18.118Z,10.60
2019-04-23T02:56:18.896Z,10.20
2019-04-23T02:57:09.334Z,10.30
2019-04-23T02:58:21.358Z,11.30
2019-04-23T02:59:18.974Z,10.60
2019-04-23T03:00:18.943Z,10.10
2019-04-23T03:01:21.984Z,10.10
2019-04-23T03:02:30.384Z,9.80
2019-04-23T03:03:14.247Z,10.30
2019-04-23T03:06:14.579Z,10.50
2019-04-23T03:07:14.072Z,10.70
2019-04-23T03:08:07.447Z,10.50
2019-04-23T03:09:18.821Z,10.20
2019-04-23T03:12:18.384Z,10.70
2019-04-23T03:13:19.839Z,10.80
2019-04-23T03:14:23.272Z,10.60
2019-04-23T03:15:23.768Z,10.70
2019-04-23T03:16:15.812Z,10.50
2019-04-23T03:17:03.408Z,11.20
2019-04-23T03:19:09.660Z,10.50
2019-04-23T03:20:14.873Z,11.40
2019-04-23T03:26:28.707Z,10.50
2019-04-23T03:28:23.126Z,10.70
2019-04-23T03:32:51.988Z,11.60
2019-04-23T03:34:19.674Z,10.50
2019-04-23T03:35:09.291Z,10.20
2019-04-23T03:37:20.336Z,10.80
2019-04-23T03:38:20.430Z,10.40
2019-04-23T03:38:56.063Z,10.10
2019-04-23T03:41:21.046Z,10.50
2019-04-23T03:42:09.861Z,10.30
2019-04-23T03:44:06.696Z,9.80
2019-04-23T03:45:17.274Z,9.90
2019-04-23T03:48:17.981Z,9.80
2019-04-23T03:49:07.139Z,9.90
2019-04-23T03:50:14.812Z,10.60
2019-04-23T03:51:11.829Z,11.60
2019-04-23T03:53:22.564Z,10.30
2019-04-23T03:55:11.724Z,10.20
2019-04-23T03:56:22.320Z,10.20
2019-04-23T03:57:18.466Z,10.50
2019-04-23T03:58:12.186Z,10.20
2019-04-23T04:00:31.062Z,9.70
2019-04-23T04:01:19.722Z,9.80
2019-04-23T04:02:30.765Z,9.90
2019-04-23T04:05:20.553Z,9.90
2019-04-23T04:06:23.553Z,9.50
2019-04-23T04:10:05.056Z,9.80
2019-04-23T04:12:14.311Z,9.00
2019-04-23T04:13:20.044Z,9.10
2019-04-23T04:14:54.487Z,9.30
2019-04-23T04:15:24.436Z,9.30
2019-04-23T04:16:12.023Z,10.00
2019-04-23T04:19:16.548Z,9.10
2019-04-23T04:20:17.807Z,9.10
2019-04-23T04:21:14.341Z,8.70
2019-04-23T04:22:23.840Z,8.80
2019-04-23T04:23:17.611Z,8.80
2019-04-23T04:25:19.286Z,9.30
2019-04-23T04:26:13.905Z,9.10
2019-04-23T04:28:17.828Z,9.70
2019-04-23T04:29:10.794Z,9.40
2019-04-23T04:30:27.722Z,9.20
2019-04-23T04:31:30.973Z,9.30
2019-04-23T04:32:15.121Z,9.30
2019-04-23T04:33:16.688Z,8.80
2019-04-23T04:34:22.285Z,9.70
2019-04-23T04:36:14.273Z,9.20
2019-04-23T04:37:36.199Z,9.30
2019-04-23T04:38:34.929Z,9.60
2019-04-23T04:39:10.070Z,9.70
2019-04-23T04:40:33.066Z,9.70
2019-04-23T04:42:11.393Z,9.60
2019-04-23T04:45:13.653Z,9.10
2019-04-23T04:47:15.540Z,9.50
2019-04-23T04:48:00.478Z,9.70
2019-04-23T04:49:11.933Z,9.90
2019-04-23T04:52:24.265Z,9.00
2019-04-23T04:54:13.928Z,8.90
2019-04-23T04:55:19.506Z,9.10
2019-04-23T04:58:12.816Z,9.00
2019-04-23T04:59:22.876Z,9.30
2019-04-23T05:01:22.413Z,9.00
2019-04-23T05:02:14.488Z,9.50
2019-04-23T05:03:19.440Z,8.70
2019-04-23T05:04:18.274Z,9.00
2019-04-23T05:05:28.942Z,9.00
2019-04-23T05:06:15.701Z,9.50
2019-04-23T05:07:09.305Z,9.50
2019-04-23T05:08:13.828Z,8.70
2019-04-23T05:09:17.084Z,8.90
2019-04-23T05:10:16.562Z,9.00
2019-04-23T05:13:22.248Z,8.80
2019-04-23T05:14:05.872Z,9.30
2019-04-23T05:15:07.368Z,9.00
2019-04-23T05:16:07.701Z,8.90
2019-04-23T05:17:18.294Z,9.30
2019-04-23T05:19:15.515Z,9.20
2019-04-23T05:21:03.648Z,8.60
2019-04-23T05:23:15.816Z,9.30
2019-04-23T05:24:21.406Z,9.40
2019-04-23T05:24:57.146Z,8.50
2019-04-23T05:26:13.464Z,9.00
2019-04-23T05:27:02.456Z,8.70
2019-04-23T05:28:07.707Z,8.50
2019-04-23T05:30:07.763Z,9.20
2019-04-23T05:31:06.535Z,8.90
2019-04-23T05:32:02.544Z,9.00
2019-04-23T05:34:06.076Z,8.80
2019-04-23T05:35:04.721Z,8.90
2019-04-23T05:37:06.151Z,8.80
2019-04-23T05:39:11.697Z,8.90
2019-04-23T05:40:08.745Z,8.90
2019-04-23T05:41:11.102Z,8.60
2019-04-23T05:42:00.609Z,9.10
2019-04-23T05:43:03.337Z,8.60
2019-04-23T05:44:10.307Z,8.70
2019-04-23T05:45:08.380Z,9.10
2019-04-23T05:46:04.422Z,8.30
2019-04-23T05:47:11.459Z,8.70
2019-04-23T05:48:13.205Z,8.50
2019-04-23T05:49:09.394Z,9.20
2019-04-23T05:50:15.482Z,8.40
2019-04-23T05:52:02.150Z,8.50
2019-04-23T05:53:04.194Z,8.10
2019-04-23T05:54:06.780Z,8.10
2019-04-23T05:55:02.635Z,8.30
2019-04-23T05:56:06.513Z,8.70
2019-04-23T05:57:09.901Z,8.20
2019-04-23T05:58:14.549Z,8.20
2019-04-23T05:59:07.154Z,8.00
2019-04-23T06:00:04.053Z,8.50
2019-04-23T06:01:22.187Z,8.30
2019-04-23T06:03:11.311Z,8.20
2019-04-23T06:05:05.965Z,8.30
2019-04-23T06:06:10.825Z,8.50
2019-04-23T06:07:15.250Z,8.30
2019-04-23T06:08:03.060Z,8.10
2019-04-23T06:09:11.232Z,8.40
2019-04-23T06:10:04.973Z,8.40
2019-04-23T06:11:11.811Z,8.40
2019-04-23T06:12:02.862Z,8.40
2019-04-23T06:13:06.604Z,8.20
2019-04-23T06:14:16.975Z,8.00
2019-04-23T06:15:05.622Z,8.20
2019-04-23T06:16:12.277Z,8.30
2019-04-23T06:17:03.695Z,7.90
2019-04-23T06:18:11.994Z,8.00
2019-04-23T06:19:08.003Z,8.30
2019-04-23T06:20:00.540Z,8.20
2019-04-23T06:21:10.078Z,7.80
2019-04-23T06:22:30.082Z,8.00
2019-04-23T06:23:11.249Z,8.30
2019-04-23T06:24:10.369Z,7.80
2019-04-23T06:25:30.789Z,8.10
2019-04-23T06:27:08.710Z,8.70
2019-04-23T06:28:08.871Z,8.40
2019-04-23T06:29:06.760Z,8.30
2019-04-23T06:30:04.603Z,8.10
2019-04-23T06:32:02.251Z,7.80
2019-04-23T06:33:05.839Z,8.30
2019-04-23T06:34:12.085Z,7.80
2019-04-23T06:35:13.881Z,8.00
2019-04-23T06:36:07.565Z,7.40
2019-04-23T06:37:05.315Z,8.40
2019-04-23T06:38:22.968Z,7.80
2019-04-23T06:40:00.399Z,8.10
2019-04-23T06:41:06.223Z,7.80
2019-04-23T06:42:02.024Z,7.40
2019-04-23T06:43:05.295Z,7.90
2019-04-23T06:44:59.568Z,7.70
2019-04-23T06:46:05.397Z,7.70
2019-04-23T06:47:03.670Z,7.80
2019-04-23T06:48:08.997Z,7.90
2019-04-23T06:49:00.853Z,8.30
2019-04-23T06:50:00.124Z,8.00
2019-04-23T06:51:09.206Z,7.80
2019-04-23T06:52:18.336Z,7.90
2019-04-23T06:52:59.412Z,7.60
2019-04-23T06:54:04.388Z,7.60
2019-04-23T06:55:01.567Z,7.90
2019-04-23T06:56:06.753Z,7.50
2019-04-23T06:57:14.853Z,7.80
2019-04-23T06:58:08.397Z,7.60
2019-04-23T06:59:06.359Z,7.90
2019-04-23T06:59:59.177Z,7.80
2019-04-23T07:01:00.703Z,7.60
2019-04-23T07:02:06.203Z,7.70
2019-04-23T07:03:07.641Z,7.20
2019-04-23T07:04:05.235Z,7.30
2019-04-23T07:06:11.782Z,7.60
2019-04-23T07:07:25.645Z,7.80
2019-04-23T07:08:04.414Z,7.60
2019-04-23T07:09:10.583Z,7.40
2019-04-23T07:09:57.872Z,7.70
2019-04-23T07:11:11.836Z,7.80
2019-04-23T07:11:56.472Z,7.70
2019-04-23T07:13:02.771Z,7.80
2019-04-23T07:15:11.614Z,7.50
2019-04-23T07:16:04.670Z,7.50
2019-04-23T07:17:03.824Z,7.50
2019-04-23T07:18:04.372Z,7.60
2019-04-23T07:19:05.075Z,7.80
2019-04-23T07:20:00.232Z,7.60
2019-04-23T07:21:06.758Z,7.70
2019-04-23T07:22:06.647Z,7.40
2019-04-23T07:23:08.381Z,7.30
2019-04-23T07:25:08.190Z,7.30
2019-04-23T07:26:07.569Z,7.20
2019-04-23T07:26:53.124Z,7.60
2019-04-23T07:28:06.864Z,7.50
2019-04-23T07:29:00.557Z,7.30
2019-04-23T07:30:10.377Z,7.60
2019-04-23T07:31:07.363Z,7.30
2019-04-23T07:32:03.645Z,7.20
2019-04-23T07:33:04.524Z,7.10
2019-04-23T07:34:01.169Z,6.80
2019-04-23T07:35:07.186Z,7.10
2019-04-23T07:35:51.825Z,7.30
2019-04-23T07:38:20.677Z,7.20
2019-04-23T07:40:20.216Z,7.70
2019-04-23T07:41:08.720Z,7.30
2019-04-23T07:42:13.763Z,7.20
2019-04-23T07:43:03.189Z,7.40
2019-04-23T07:44:14.265Z,6.90
2019-04-23T07:45:02.063Z,7.00
2019-04-23T07:46:10.291Z,7.60
2019-04-23T07:48:13.257Z,6.60
2019-04-23T07:49:07.824Z,7.20
2019-04-23T07:50:19.228Z,7.30
2019-04-23T07:51:06.204Z,7.30
2019-04-23T07:52:12.982Z,7.00
2019-04-23T07:53:17.076Z,6.70
2019-04-23T07:55:08.322Z,7.10
2019-04-23T07:56:05.920Z,7.20
2019-04-23T07:57:08.918Z,7.30
2019-04-23T07:58:06.707Z,7.20
2019-04-23T07:59:07.281Z,6.90
2019-04-23T08:00:02.560Z,7.40
2019-04-23T08:01:13.803Z,6.60
2019-04-23T08:02:08.038Z,6.70
2019-04-23T08:03:13.560Z,6.70
2019-04-23T08:04:05.025Z,7.10
2019-04-23T08:05:13.081Z,6.90
2019-04-23T08:06:04.282Z,7.10
2019-04-23T08:07:00.834Z,6.80
2019-04-23T08:08:01.618Z,7.00
2019-04-23T08:09:03.579Z,6.70
2019-04-23T08:10:02.309Z,7.20
2019-04-23T08:11:23.434Z,7.00
2019-04-23T08:12:07.905Z,6.50
2019-04-23T08:13:10.317Z,6.50
2019-04-23T08:16:08.880Z,6.50
2019-04-23T08:16:58.327Z,6.50
2019-04-23T08:18:09.927Z,7.10
2019-04-23T08:18:57.617Z,6.60
2019-04-23T08:20:19.391Z,7.10
2019-04-23T08:21:00.879Z,6.60
2019-04-23T08:22:13.467Z,6.20
2019-04-23T08:23:01.899Z,6.50
2019-04-23T08:24:00.264Z,6.10
2019-04-23T08:25:08.468Z,6.80
2019-04-23T08:26:14.344Z,6.50
2019-04-23T08:27:04.664Z,6.80
2019-04-23T08:28:10.226Z,6.80
2019-04-23T08:29:12.242Z,6.80
2019-04-23T08:30:00.202Z,6.30
2019-04-23T08:31:00.557Z,6.40
2019-04-23T08:32:06.845Z,6.70
2019-04-23T08:33:03.716Z,6.80
2019-04-23T08:34:17.146Z,6.20
2019-04-23T08:35:01.309Z,6.20
2019-04-23T08:36:07.269Z,6.50
2019-04-23T08:37:05.064Z,6.40
2019-04-23T08:39:04.123Z,6.20
2019-04-23T08:41:10.228Z,7.00
2019-04-23T08:42:21.745Z,6.10
2019-04-23T08:43:09.051Z,6.20
2019-04-23T08:44:05.568Z,7.70
2019-04-23T08:45:12.775Z,6.20
2019-04-23T08:46:05.930Z,6.60
2019-04-23T08:48:09.259Z,6.20
2019-04-23T08:49:03.066Z,6.40
2019-04-23T08:49:57.967Z,6.10
2019-04-23T08:51:10.799Z,6.10
2019-04-23T08:52:07.132Z,6.10
2019-04-23T08:53:19.978Z,6.00
2019-04-23T08:54:10.640Z,6.10
2019-04-23T08:55:00.860Z,6.40
2019-04-23T08:56:15.079Z,5.80
2019-04-23T08:57:09.099Z,5.90
2019-04-23T08:57:56.159Z,6.00
2019-04-23T08:59:09.083Z,6.60
2019-04-23T09:00:17.790Z,5.30
2019-04-23T09:01:05.665Z,6.00
2019-04-23T09:03:04.610Z,5.80
2019-04-23T09:04:04.780Z,5.80
2019-04-23T09:05:16.206Z,6.10
2019-04-23T09:07:11.352Z,6.20
2019-04-23T09:08:08.306Z,6.40
2019-04-23T09:08:56.575Z,5.90
2019-04-23T09:10:07.807Z,6.40
2019-04-23T09:11:04.928Z,6.10
2019-04-23T09:11:59.541Z,6.10
2019-04-23T09:13:32.139Z,6.60
2019-04-23T09:14:05.654Z,6.40
2019-04-23T09:16:14.743Z,7.40
2019-04-23T09:17:11.429Z,7.10
2019-04-23T09:18:02.783Z,7.70
2019-04-23T09:19:10.593Z,6.70
2019-04-23T09:21:03.679Z,6.20
2019-04-23T09:22:07.203Z,6.70
2019-04-23T09:22:55.104Z,7.50
2019-04-23T09:24:00.715Z,6.90
2019-04-23T09:25:06.552Z,6.80
2019-04-23T09:25:57.543Z,6.70
2019-04-23T09:27:09.720Z,7.00
2019-04-23T09:28:00.352Z,6.70
2019-04-23T09:31:08.983Z,6.80
2019-04-23T09:33:07.968Z,6.30
2019-04-23T09:35:08.593Z,6.00
2019-04-23T09:36:02.732Z,6.10
2019-04-23T09:37:06.226Z,6.30
2019-04-23T09:37:59.638Z,5.80
2019-04-23T09:39:00.168Z,6.50
2019-04-23T09:40:13.992Z,6.50
2019-04-23T09:41:16.677Z,7.10
2019-04-23T09:42:05.506Z,6.30
2019-04-23T09:44:09.443Z,5.90
2019-04-23T09:45:03.853Z,6.30
2019-04-23T09:46:06.415Z,6.20
2019-04-23T09:47:06.579Z,5.90
2019-04-23T09:48:01.660Z,6.50
2019-04-23T09:49:09.783Z,7.30
2019-04-23T09:50:01.227Z,6.40
2019-04-23T09:51:03.133Z,5.90
2019-04-23T09:52:07.914Z,6.50
2019-04-23T09:54:04.440Z,6.30
2019-04-23T09:55:07.620Z,6.80
2019-04-23T09:55:51.326Z,6.40
2019-04-23T09:56:57.366Z,5.50
2019-04-23T09:58:06.079Z,6.20
2019-04-23T09:59:10.975Z,6.00
2019-04-23T10:00:25.601Z,5.80
2019-04-23T10:00:54.499Z,5.60
2019-04-23T10:01:52.883Z,6.20
2019-04-23T10:02:53.967Z,6.10
2019-04-23T10:03:47.812Z,6.40
2019-04-23T10:04:48.705Z,5.70
2019-04-23T10:05:46.050Z,6.40
2019-04-23T10:06:38.965Z,6.00
2019-04-23T10:07:44.509Z,5.80
2019-04-23T10:08:38.200Z,5.80
2019-04-23T10:09:34.308Z,6.10
2019-04-23T10:10:34.328Z,5.80
2019-04-23T10:11:34.588Z,5.80
2019-04-23T10:12:33.211Z,5.80
2019-04-23T10:13:34.400Z,6.10
2019-04-23T10:14:34.518Z,6.10
2019-04-23T10:15:37.170Z,5.70
2019-04-23T10:16:34.456Z,6.60
2019-04-23T10:17:34.085Z,7.10
2019-04-23T10:18:33.271Z,7.40
2019-04-23T10:19:33.138Z,6.20
2019-04-23T10:20:34.365Z,5.80
2019-04-23T10:21:33.436Z,5.70
2019-04-23T10:22:35.818Z,5.80
2019-04-23T10:23:33.453Z,5.50
2019-04-23T10:24:33.099Z,6.00
2019-04-23T10:25:34.138Z,6.10
2019-04-23T10:26:34.333Z,5.20
2019-04-23T10:27:33.048Z,5.80
2019-04-23T10:28:33.808Z,5.80
2019-04-23T10:29:34.259Z,6.60
2019-04-23T10:30:33.035Z,5.90
2019-04-23T10:31:33.499Z,6.00
2019-04-23T10:32:33.547Z,5.80
2019-04-23T10:33:34.350Z,5.70
2019-04-23T10:34:42.973Z,5.60
2019-04-23T10:35:44.556Z,6.10
2019-04-23T10:36:34.614Z,5.40
2019-04-23T10:37:44.801Z,6.50
2019-04-23T10:38:34.611Z,5.80
2019-04-23T10:39:38.874Z,6.50
2019-04-23T10:40:38.185Z,7.30
2019-04-23T10:41:35.807Z,8.60
2019-04-23T10:42:35.862Z,6.00
2019-04-23T10:43:38.376Z,6.00
2019-04-23T10:44:35.274Z,5.60
2019-04-23T10:45:44.798Z,5.50
2019-04-23T10:46:53.137Z,5.30
2019-04-23T10:49:10.796Z,6.30
2019-04-23T10:50:07.407Z,5.80
2019-04-23T10:51:00.259Z,6.50
2019-04-23T10:52:11.629Z,5.70
2019-04-23T10:53:09.239Z,5.70
2019-04-23T10:55:00.028Z,5.40
2019-04-23T10:56:02.793Z,5.40
2019-04-23T10:56:59.806Z,5.30
2019-04-23T10:58:01.928Z,5.80
2019-04-23T10:58:54.984Z,5.00
2019-04-23T11:00:00.040Z,4.90
2019-04-23T11:01:08.734Z,4.60
2019-04-23T11:02:20.122Z,5.80
2019-04-23T11:03:12.525Z,5.60
2019-04-23T11:04:36.126Z,6.30
2019-04-23T11:06:06.647Z,5.70
2019-04-23T11:07:09.971Z,5.70
2019-04-23T11:07:55.190Z,5.20
2019-04-23T11:09:05.871Z,5.00
2019-04-23T11:10:03.297Z,5.80
2019-04-23T11:11:12.156Z,5.50
2019-04-23T11:12:14.601Z,5.20
2019-04-23T11:13:25.790Z,5.50
2019-04-23T11:14:02.886Z,5.40
2019-04-23T11:15:11.149Z,5.00
2019-04-23T11:16:37.099Z,5.70
2019-04-23T11:17:03.627Z,5.60
2019-04-23T11:17:55.683Z,5.20
2019-04-23T11:18:56.682Z,5.70
2019-04-23T11:20:06.895Z,6.00
2019-04-23T11:21:07.408Z,5.20
2019-04-23T11:22:17.451Z,6.30
2019-04-23T11:22:54.901Z,5.80
2019-04-23T11:24:12.691Z,5.50
2019-04-23T11:25:12.099Z,6.20
2019-04-23T11:25:55.859Z,5.40
2019-04-23T11:27:07.845Z,5.50
2019-04-23T11:28:11.504Z,6.00
2019-04-23T11:29:01.653Z,7.20
2019-04-23T11:30:10.776Z,7.60
2019-04-23T11:30:57.366Z,6.30
2019-04-23T11:32:19.754Z,6.00
2019-04-23T11:35:18.191Z,6.70
2019-04-23T11:37:06.170Z,5.70
2019-04-23T11:38:29.088Z,5.70
2019-04-23T11:39:16.409Z,5.50
2019-04-23T11:41:04.131Z,6.40
2019-04-23T11:42:05.186Z,6.80
2019-04-23T11:44:56.557Z,6.10
2019-04-23T11:45:05.449Z,6.20
2019-04-23T11:46:10.537Z,5.50
2019-04-23T11:47:09.385Z,6.10
2019-04-23T11:48:26.388Z,5.70
2019-04-23T11:50:12.321Z,6.20
2019-04-23T11:51:10.663Z,5.70
2019-04-23T11:51:36.398Z,5.80
2019-04-23T11:53:06.719Z,5.60
2019-04-23T11:54:05.855Z,5.60
2019-04-23T11:55:09.427Z,5.50
2019-04-23T11:56:02.886Z,5.50
2019-04-23T11:57:22.448Z,5.80
2019-04-23T11:59:10.229Z,5.60
2019-04-23T11:59:59.496Z,6.70
2019-04-23T12:01:11.637Z,6.20
2019-04-23T12:02:19.369Z,8.20
2019-04-23T12:02:57.542Z,6.60
2019-04-23T12:05:11.665Z,6.50
2019-04-23T12:06:07.867Z,7.70
2019-04-23T12:07:04.727Z,6.60
2019-04-23T12:08:07.306Z,7.00
2019-04-23T12:08:56.597Z,6.50
2019-04-23T12:10:19.997Z,6.90
2019-04-23T12:11:58.258Z,7.40
2019-04-23T12:13:03.338Z,7.60
2019-04-23T12:14:10.173Z,6.60
2019-04-23T12:15:07.220Z,6.50
2019-04-23T12:16:00.572Z,6.50
2019-04-23T12:17:18.652Z,9.20
2019-04-23T12:17:59.089Z,6.80
2019-04-23T12:19:28.798Z,7.00
2019-04-23T12:20:06.039Z,7.20
2019-04-23T12:20:56.683Z,6.70
2019-04-23T12:23:12.217Z,6.80
2019-04-23T12:24:04.321Z,6.70
2019-04-23T12:26:02.998Z,5.90
2019-04-23T12:27:08.461Z,6.00
2019-04-23T12:27:46.935Z,5.90
2019-04-23T12:29:13.827Z,6.50
2019-04-23T12:30:00.796Z,6.70
2019-04-23T12:30:57.273Z,6.20
2019-04-23T12:32:16.113Z,6.80
2019-04-23T12:33:03.138Z,6.10
2019-04-23T12:35:03.666Z,5.80
2019-04-23T12:36:04.886Z,5.50
2019-04-23T12:37:21.368Z,6.00
2019-04-23T12:38:00.968Z,5.60
2019-04-23T12:39:04.356Z,5.90
2019-04-23T12:40:13.091Z,6.20
2019-04-23T12:40:57.839Z,6.20
2019-04-23T12:43:57.953Z,6.40
2019-04-23T12:45:05.166Z,6.70
2019-04-23T12:45:59.505Z,6.10
2019-04-23T12:47:09.852Z,6.00
2019-04-23T12:49:34.383Z,6.10
2019-04-23T12:50:31.164Z,6.40
2019-04-23T12:51:21.321Z,6.50
2019-04-23T12:52:03.632Z,7.00
2019-04-23T12:53:22.939Z,6.40
2019-04-23T12:53:57.760Z,6.80
2019-04-23T12:55:08.672Z,6.10
2019-04-23T12:56:20.372Z,5.90
2019-04-23T12:57:09.020Z,5.50
2019-04-23T12:58:01.868Z,6.40
2019-04-23T12:59:01.445Z,6.30
2019-04-23T13:01:05.490Z,6.60
2019-04-23T13:02:08.135Z,6.20
2019-04-23T13:02:55.459Z,6.00
2019-04-23T13:03:50.575Z,6.00
2019-04-23T13:05:00.538Z,6.40
2019-04-23T13:05:55.379Z,6.40
2019-04-23T13:07:00.199Z,6.30
2019-04-23T13:08:13.373Z,6.40
2019-04-23T13:09:01.361Z,6.30
2019-04-23T13:10:01.425Z,6.10
2019-04-23T13:10:59.349Z,6.60
2019-04-23T13:12:06.431Z,6.90
2019-04-23T13:13:09.447Z,6.70
2019-04-23T13:15:13.921Z,7.00
2019-04-23T13:17:19.931Z,6.00
2019-04-23T13:18:11.338Z,6.70
2019-04-23T13:19:24.220Z,6.70
2019-04-23T13:21:36.410Z,6.70
2019-04-23T13:22:16.439Z,6.30
2019-04-23T13:24:11.454Z,6.80
2019-04-23T13:25:09.476Z,6.60
2019-04-23T13:26:16.102Z,6.60
2019-04-23T13:27:12.047Z,7.10
2019-04-23T13:29:19.949Z,6.40
2019-04-23T13:30:17.036Z,6.20
2019-04-23T13:32:09.346Z,8.10
2019-04-23T13:34:17.620Z,7.50
2019-04-23T13:35:42.028Z,6.30
2019-04-23T13:36:17.545Z,6.90
2019-04-23T13:37:11.999Z,7.50
2019-04-23T13:38:19.588Z,6.80
2019-04-23T13:39:11.965Z,6.70
2019-04-23T13:40:09.588Z,6.60
2019-04-23T13:41:19.134Z,6.90
2019-04-23T13:42:19.820Z,6.70
2019-04-23T13:43:23.464Z,7.10
2019-04-23T13:44:10.024Z,7.30
2019-04-23T13:45:18.383Z,6.50
2019-04-23T13:47:25.034Z,6.10
2019-04-23T13:49:08.038Z,6.60
2019-04-23T13:50:28.114Z,7.10
2019-04-23T13:51:16.217Z,7.60
2019-04-23T13:52:38.034Z,7.10
2019-04-23T13:53:21.013Z,6.70
2019-04-23T13:54:24.070Z,6.70
2019-04-23T13:56:09.136Z,6.60
2019-04-23T13:57:44.019Z,6.60
2019-04-23T13:58:15.227Z,6.70
2019-04-23T13:59:29.044Z,6.70
2019-04-23T14:00:19.212Z,6.50
2019-04-23T14:01:20.066Z,6.90
2019-04-23T14:02:17.665Z,6.90
2019-04-23T14:03:13.282Z,6.50
2019-04-23T14:04:14.217Z,6.30
2019-04-23T14:05:17.781Z,7.00
2019-04-23T14:07:17.764Z,7.10
2019-04-23T14:08:22.817Z,7.00
2019-04-23T14:09:17.236Z,6.80
2019-04-23T14:11:19.763Z,7.00
2019-04-23T14:12:08.361Z,6.80
2019-04-23T14:13:31.174Z,6.70
2019-04-23T14:14:22.433Z,7.50
2019-04-23T14:15:11.705Z,6.50
2019-04-23T14:16:21.232Z,7.40
2019-04-23T14:17:26.922Z,6.70
2019-04-23T14:18:36.758Z,6.80
2019-04-23T14:19:02.438Z,6.70
2019-04-23T14:22:33.738Z,6.90
2019-04-23T14:24:18.226Z,6.70
2019-04-23T14:27:14.290Z,6.90
2019-04-23T14:28:21.674Z,6.80
2019-04-23T14:29:04.557Z,6.80
2019-04-23T14:30:21.781Z,6.90
2019-04-23T14:31:13.427Z,6.60
2019-04-23T14:32:20.832Z,6.50
2019-04-23T14:33:24.896Z,7.00
2019-04-23T14:35:18.516Z,7.00
2019-04-23T14:37:13.285Z,6.90
2019-04-23T14:39:10.054Z,7.10
2019-04-23T14:40:15.306Z,7.00
2019-04-23T14:41:31.919Z,7.10
2019-04-23T14:42:21.447Z,7.30
2019-04-23T14:43:15.027Z,6.70
2019-04-23T14:44:16.148Z,6.90
2019-04-23T14:45:18.815Z,7.40
2019-04-23T14:47:16.831Z,6.60
2019-04-23T14:49:26.902Z,7.30
2019-04-23T14:51:16.737Z,7.40
2019-04-23T14:52:12.099Z,6.90
2019-04-23T14:53:24.475Z,6.80
2019-04-23T14:54:12.921Z,7.30
2019-04-23T14:55:40.561Z,7.20
2019-04-23T14:56:13.118Z,6.90
2019-04-23T14:58:17.201Z,7.40
2019-04-23T14:59:07.884Z,7.30
2019-04-23T15:01:24.792Z,7.10
2019-04-23T15:02:16.071Z,7.20
2019-04-23T15:03:19.923Z,7.80
2019-04-23T15:04:01.604Z,7.20
2019-04-23T15:05:13.055Z,7.30
2019-04-23T15:06:28.211Z,7.30
2019-04-23T15:07:15.690Z,7.30
2019-04-23T15:08:15.269Z,7.20
2019-04-23T15:09:22.930Z,7.30
2019-04-23T15:10:17.900Z,7.00
2019-04-23T15:11:22.387Z,6.90
2019-04-23T15:12:20.848Z,7.50
2019-04-23T15:13:23.201Z,7.60
2019-04-23T15:14:23.340Z,8.10
2019-04-23T15:16:16.693Z,7.50
2019-04-23T15:17:18.888Z,7.60
2019-04-23T15:18:13.167Z,7.60
2019-04-23T15:20:11.919Z,7.50
2019-04-23T15:21:28.754Z,7.50
2019-04-23T15:23:25.021Z,7.70
2019-04-23T15:24:17.534Z,7.30
2019-04-23T15:27:02.344Z,7.50
2019-04-23T15:27:59.354Z,7.20
2019-04-23T15:28:06.973Z,7.30
2019-04-23T15:28:52.319Z,7.70
2019-04-23T15:30:00.832Z,8.10
2019-04-23T15:31:23.438Z,7.80
2019-04-23T15:32:14.973Z,7.60
2019-04-23T15:33:19.786Z,7.40
2019-04-23T15:35:25.015Z,7.90
2019-04-23T15:37:23.771Z,7.90
2019-04-23T15:39:19.598Z,7.50
2019-04-23T15:40:20.905Z,8.30
2019-04-23T15:41:15.293Z,7.50
2019-04-23T15:42:26.121Z,8.20
2019-04-23T15:43:10.579Z,8.10
2019-04-23T15:45:13.331Z,8.10
2019-04-23T15:46:11.699Z,7.60
2019-04-23T15:47:12.628Z,8.20
2019-04-23T15:48:13.745Z,8.60
2019-04-23T15:51:21.892Z,8.40
2019-04-23T15:53:17.640Z,8.20